sensor_id;sensor_type;location;lat;lon;timestamp;pressure;altitude;pressure_sealevel;temperature;humidity
4273;BME280;63887;53.656;9.810;2023-05-29T00:00:01;102291.22;;;12.18;66.24
4273;BME280;63887;53.656;9.810;2023-05-29T00:02:30;102287.38;;;11.80;67.24
4273;BME280;63887;53.656;9.810;2023-05-29T00:04:57;102294.47;;;12.01;65.84
4273;BME280;63887;53.656;9.810;2023-05-29T00:07:23;102290.88;;;11.80;67.00
4273;BME280;63887;53.656;9.810;2023-05-29T00:09:49;102290.81;;;11.82;66.49
4273;BME280;63887;53.656;9.810;2023-05-29T00:12:17;102285.19;;;11.92;65.63
4273;BME280;63887;53.656;9.810;2023-05-29T00:14:43;102286.63;;;11.75;66.05
4273;BME280;63887;53.656;9.810;2023-05-29T00:17:10;102292.00;;;11.72;66.37
4273;BME280;63887;53.656;9.810;2023-05-29T00:19:37;102296.56;;;11.67;66.16
4273;BME280;63887;53.656;9.810;2023-05-29T00:22:03;102296.19;;;11.52;67.18
4273;BME280;63887;53.656;9.810;2023-05-29T00:24:30;102294.56;;;11.48;66.47
4273;BME280;63887;53.656;9.810;2023-05-29T00:26:56;102300.00;;;11.16;67.75
4273;BME280;63887;53.656;9.810;2023-05-29T00:29:24;102306.25;;;11.40;66.83
4273;BME280;63887;53.656;9.810;2023-05-29T00:31:50;102315.94;;;11.38;66.13
4273;BME280;63887;53.656;9.810;2023-05-29T00:34:18;102309.44;;;11.23;66.46
4273;BME280;63887;53.656;9.810;2023-05-29T00:36:44;102310.03;;;11.04;67.25
4273;BME280;63887;53.656;9.810;2023-05-29T00:39:11;102319.09;;;10.94;67.41
4273;BME280;63887;53.656;9.810;2023-05-29T00:41:37;102326.53;;;10.80;67.56
4273;BME280;63887;53.656;9.810;2023-05-29T00:44:03;102327.34;;;10.82;67.23
4273;BME280;63887;53.656;9.810;2023-05-29T00:46:31;102327.88;;;10.93;67.38
4273;BME280;63887;53.656;9.810;2023-05-29T00:48:58;102332.31;;;10.91;66.88
4273;BME280;63887;53.656;9.810;2023-05-29T00:51:25;102330.94;;;10.80;67.24
4273;BME280;63887;53.656;9.810;2023-05-29T00:53:52;102333.41;;;10.84;67.48
4273;BME280;63887;53.656;9.810;2023-05-29T00:56:18;102329.75;;;10.90;67.32
4273;BME280;63887;53.656;9.810;2023-05-29T00:58:45;102335.88;;;10.61;68.49
4273;BME280;63887;53.656;9.810;2023-05-29T01:01:12;102336.72;;;10.61;69.28
4273;BME280;63887;53.656;9.810;2023-05-29T01:03:40;102341.06;;;10.62;68.94
4273;BME280;63887;53.656;9.810;2023-05-29T01:06:07;102343.78;;;10.59;69.24
4273;BME280;63887;53.656;9.810;2023-05-29T01:08:35;102351.41;;;10.37;69.91
4273;BME280;63887;53.656;9.810;2023-05-29T01:11:04;102351.44;;;10.67;69.38
4273;BME280;63887;53.656;9.810;2023-05-29T01:13:34;102351.84;;;10.21;70.38
4273;BME280;63887;53.656;9.810;2023-05-29T01:16:03;102354.00;;;10.68;69.25
4273;BME280;63887;53.656;9.810;2023-05-29T01:18:37;102355.28;;;10.24;70.61
4273;BME280;63887;53.656;9.810;2023-05-29T01:21:08;102348.91;;;10.64;68.47
4273;BME280;63887;53.656;9.810;2023-05-29T01:34:46;102351.72;;;10.27;69.75
4273;BME280;63887;53.656;9.810;2023-05-29T01:37:12;102349.81;;;9.99;70.82
4273;BME280;63887;53.656;9.810;2023-05-29T01:39:39;102349.16;;;9.91;71.21
4273;BME280;63887;53.656;9.810;2023-05-29T01:42:05;102349.50;;;10.10;70.36
4273;BME280;63887;53.656;9.810;2023-05-29T01:44:32;102347.44;;;9.90;70.81
4273;BME280;63887;53.656;9.810;2023-05-29T01:46:59;102351.31;;;10.08;70.20
4273;BME280;63887;53.656;9.810;2023-05-29T01:49:25;102351.88;;;9.88;70.39
4273;BME280;63887;53.656;9.810;2023-05-29T01:51:53;102353.34;;;9.64;71.57
4273;BME280;63887;53.656;9.810;2023-05-29T01:54:20;102351.06;;;9.86;71.17
4273;BME280;63887;53.656;9.810;2023-05-29T01:56:46;102347.41;;;9.92;70.40
4273;BME280;63887;53.656;9.810;2023-05-29T01:59:13;102360.59;;;9.54;71.65
4273;BME280;63887;53.656;9.810;2023-05-29T02:01:39;102361.03;;;9.72;71.13
4273;BME280;63887;53.656;9.810;2023-05-29T02:04:06;102367.50;;;9.57;72.20
4273;BME280;63887;53.656;9.810;2023-05-29T02:06:32;102375.50;;;9.52;72.54
4273;BME280;63887;53.656;9.810;2023-05-29T02:09:00;102369.97;;;9.63;71.38
4273;BME280;63887;53.656;9.810;2023-05-29T02:11:26;102377.59;;;9.38;72.12
4273;BME280;63887;53.656;9.810;2023-05-29T02:13:53;102362.06;;;9.65;70.65
4273;BME280;63887;53.656;9.810;2023-05-29T02:16:19;102366.41;;;9.30;72.49
4273;BME280;63887;53.656;9.810;2023-05-29T02:18:45;102370.59;;;9.39;72.13
4273;BME280;63887;53.656;9.810;2023-05-29T02:21:12;102367.88;;;9.42;71.61
4273;BME280;63887;53.656;9.810;2023-05-29T02:23:38;102368.06;;;9.70;70.23
4273;BME280;63887;53.656;9.810;2023-05-29T02:26:06;102365.75;;;9.57;70.80
4273;BME280;63887;53.656;9.810;2023-05-29T02:28:33;102363.06;;;9.25;71.98
4273;BME280;63887;53.656;9.810;2023-05-29T02:30:59;102353.47;;;9.24;72.71
4273;BME280;63887;53.656;9.810;2023-05-29T02:33:26;102362.03;;;9.31;72.54
4273;BME280;63887;53.656;9.810;2023-05-29T02:35:54;102364.25;;;9.12;73.18
4273;BME280;63887;53.656;9.810;2023-05-29T02:38:22;102362.75;;;9.00;73.73
4273;BME280;63887;53.656;9.810;2023-05-29T02:40:48;102359.25;;;9.37;72.31
4273;BME280;63887;53.656;9.810;2023-05-29T02:43:16;102360.84;;;9.08;72.67
4273;BME280;63887;53.656;9.810;2023-05-29T02:45:42;102359.84;;;9.12;74.12
4273;BME280;63887;53.656;9.810;2023-05-29T02:48:08;102359.41;;;8.93;74.16
4273;BME280;63887;53.656;9.810;2023-05-29T02:50:35;102363.19;;;9.19;73.02
4273;BME280;63887;53.656;9.810;2023-05-29T02:53:01;102361.69;;;9.09;73.52
4273;BME280;63887;53.656;9.810;2023-05-29T02:55:27;102348.13;;;8.90;73.81
4273;BME280;63887;53.656;9.810;2023-05-29T02:57:53;102355.81;;;9.35;71.91
4273;BME280;63887;53.656;9.810;2023-05-29T03:00:22;102355.16;;;9.26;72.26
4273;BME280;63887;53.656;9.810;2023-05-29T03:02:48;102366.22;;;9.39;71.66
4273;BME280;63887;53.656;9.810;2023-05-29T03:05:14;102367.88;;;8.66;76.16
4273;BME280;63887;53.656;9.810;2023-05-29T03:07:41;102365.41;;;8.99;74.93
4273;BME280;63887;53.656;9.810;2023-05-29T03:10:08;102366.06;;;9.08;73.62
4273;BME280;63887;53.656;9.810;2023-05-29T03:12:34;102359.31;;;8.98;73.62
4273;BME280;63887;53.656;9.810;2023-05-29T03:15:01;102352.78;;;8.77;74.23
4273;BME280;63887;53.656;9.810;2023-05-29T03:17:28;102357.69;;;8.52;75.94
4273;BME280;63887;53.656;9.810;2023-05-29T03:19:54;102361.44;;;8.81;74.42
4273;BME280;63887;53.656;9.810;2023-05-29T03:22:22;102360.06;;;8.64;75.21
4273;BME280;63887;53.656;9.810;2023-05-29T03:24:48;102365.47;;;8.95;74.02
4273;BME280;63887;53.656;9.810;2023-05-29T03:27:15;102369.34;;;9.16;72.85
4273;BME280;63887;53.656;9.810;2023-05-29T03:29:41;102375.09;;;8.95;73.45
4273;BME280;63887;53.656;9.810;2023-05-29T03:32:07;102370.44;;;8.68;76.03
4273;BME280;63887;53.656;9.810;2023-05-29T03:34:35;102370.75;;;8.92;74.25
4273;BME280;63887;53.656;9.810;2023-05-29T03:37:01;102365.75;;;9.20;72.96
4273;BME280;63887;53.656;9.810;2023-05-29T03:39:28;102375.69;;;9.08;73.25
4273;BME280;63887;53.656;9.810;2023-05-29T03:41:54;102372.78;;;9.18;72.64
4273;BME280;63887;53.656;9.810;2023-05-29T03:44:20;102380.03;;;8.67;74.94
4273;BME280;63887;53.656;9.810;2023-05-29T03:46:47;102375.13;;;8.93;74.18
4273;BME280;63887;53.656;9.810;2023-05-29T03:49:13;102369.06;;;8.90;74.10
4273;BME280;63887;53.656;9.810;2023-05-29T03:51:40;102373.78;;;9.14;73.30
4273;BME280;63887;53.656;9.810;2023-05-29T03:54:07;102373.00;;;9.46;71.74
4273;BME280;63887;53.656;9.810;2023-05-29T03:56:33;102372.88;;;8.75;74.20
4273;BME280;63887;53.656;9.810;2023-05-29T03:59:00;102371.31;;;9.08;73.24
4273;BME280;63887;53.656;9.810;2023-05-29T04:01:26;102375.94;;;9.33;73.42
4273;BME280;63887;53.656;9.810;2023-05-29T04:03:53;102372.72;;;9.21;72.93
4273;BME280;63887;53.656;9.810;2023-05-29T04:06:19;102371.97;;;9.53;71.36
4273;BME280;63887;53.656;9.810;2023-05-29T04:08:48;102377.53;;;9.40;72.17
4273;BME280;63887;53.656;9.810;2023-05-29T04:11:15;102385.97;;;9.15;73.84
4273;BME280;63887;53.656;9.810;2023-05-29T04:13:41;102382.66;;;9.44;71.54
4273;BME280;63887;53.656;9.810;2023-05-29T04:16:07;102389.59;;;9.47;72.21
4273;BME280;63887;53.656;9.810;2023-05-29T04:18:34;102389.59;;;9.47;72.77
4273;BME280;63887;53.656;9.810;2023-05-29T04:21:00;102393.38;;;9.71;71.28
4273;BME280;63887;53.656;9.810;2023-05-29T04:23:26;102392.06;;;9.53;71.55
4273;BME280;63887;53.656;9.810;2023-05-29T04:25:54;102406.03;;;9.52;71.75
4273;BME280;63887;53.656;9.810;2023-05-29T04:28:20;102411.41;;;9.47;71.75
4273;BME280;63887;53.656;9.810;2023-05-29T04:30:46;102414.78;;;9.51;72.47
4273;BME280;63887;53.656;9.810;2023-05-29T04:33:13;102405.88;;;9.60;71.90
4273;BME280;63887;53.656;9.810;2023-05-29T04:35:40;102412.94;;;9.19;75.91
4273;BME280;63887;53.656;9.810;2023-05-29T04:38:08;102417.69;;;9.40;74.06
4273;BME280;63887;53.656;9.810;2023-05-29T04:40:34;102414.41;;;9.68;72.38
4273;BME280;63887;53.656;9.810;2023-05-29T04:43:02;102411.66;;;9.72;71.95
4273;BME280;63887;53.656;9.810;2023-05-29T04:45:30;102409.47;;;9.90;70.48
4273;BME280;63887;53.656;9.810;2023-05-29T04:47:56;102405.41;;;10.12;69.61
4273;BME280;63887;53.656;9.810;2023-05-29T04:50:22;102401.94;;;10.10;69.87
4273;BME280;63887;53.656;9.810;2023-05-29T04:52:49;102409.25;;;10.33;68.91
4273;BME280;63887;53.656;9.810;2023-05-29T04:55:16;102407.78;;;10.23;69.81
4273;BME280;63887;53.656;9.810;2023-05-29T04:57:42;102414.16;;;10.45;69.18
4273;BME280;63887;53.656;9.810;2023-05-29T05:00:10;102417.44;;;10.19;69.26
4273;BME280;63887;53.656;9.810;2023-05-29T05:02:39;102424.63;;;10.47;68.36
4273;BME280;63887;53.656;9.810;2023-05-29T05:05:05;102426.56;;;10.38;68.68
4273;BME280;63887;53.656;9.810;2023-05-29T05:07:32;102418.94;;;10.31;68.21
4273;BME280;63887;53.656;9.810;2023-05-29T05:09:58;102424.91;;;10.67;68.79
4273;BME280;63887;53.656;9.810;2023-05-29T05:12:24;102418.22;;;10.57;68.33
4273;BME280;63887;53.656;9.810;2023-05-29T05:14:51;102425.56;;;10.44;68.27
4273;BME280;63887;53.656;9.810;2023-05-29T05:17:18;102420.34;;;10.73;67.19
4273;BME280;63887;53.656;9.810;2023-05-29T05:19:45;102424.09;;;10.65;68.18
4273;BME280;63887;53.656;9.810;2023-05-29T05:22:13;102417.16;;;10.62;67.67
4273;BME280;63887;53.656;9.810;2023-05-29T05:24:40;102418.75;;;10.97;66.71
4273;BME280;63887;53.656;9.810;2023-05-29T05:27:06;102419.63;;;10.98;66.45
4273;BME280;63887;53.656;9.810;2023-05-29T05:29:32;102429.25;;;11.27;65.42
4273;BME280;63887;53.656;9.810;2023-05-29T05:31:58;102433.31;;;11.37;64.53
4273;BME280;63887;53.656;9.810;2023-05-29T05:34:26;102424.56;;;11.37;64.25
4273;BME280;63887;53.656;9.810;2023-05-29T05:36:52;102426.09;;;11.44;63.77
4273;BME280;63887;53.656;9.810;2023-05-29T05:39:19;102418.56;;;11.87;61.90
4273;BME280;63887;53.656;9.810;2023-05-29T05:41:45;102423.34;;;12.51;59.83
4273;BME280;63887;53.656;9.810;2023-05-29T05:44:11;102422.09;;;12.38;60.44
4273;BME280;63887;53.656;9.810;2023-05-29T05:46:37;102423.84;;;13.53;56.32
4273;BME280;63887;53.656;9.810;2023-05-29T05:49:04;102407.84;;;14.20;54.23
4273;BME280;63887;53.656;9.810;2023-05-29T05:51:31;102410.31;;;15.92;49.69
4273;BME280;63887;53.656;9.810;2023-05-29T05:53:57;102410.63;;;16.54;46.92
4273;BME280;63887;53.656;9.810;2023-05-29T05:56:24;102413.22;;;17.50;44.83
4273;BME280;63887;53.656;9.810;2023-05-29T05:58:51;102422.47;;;18.04;43.11
4273;BME280;63887;53.656;9.810;2023-05-29T06:01:17;102426.97;;;18.46;43.16
4273;BME280;63887;53.656;9.810;2023-05-29T06:03:44;102426.78;;;18.35;42.28
4273;BME280;63887;53.656;9.810;2023-05-29T06:06:10;102420.63;;;18.92;41.22
4273;BME280;63887;53.656;9.810;2023-05-29T06:08:38;102424.00;;;21.03;36.13
4273;BME280;63887;53.656;9.810;2023-05-29T06:11:06;102421.78;;;19.83;38.05
4273;BME280;63887;53.656;9.810;2023-05-29T06:13:32;102415.19;;;19.08;40.04
4273;BME280;63887;53.656;9.810;2023-05-29T06:15:58;102418.94;;;19.99;37.43
4273;BME280;63887;53.656;9.810;2023-05-29T06:18:25;102420.97;;;20.71;35.60
4273;BME280;63887;53.656;9.810;2023-05-29T06:20:52;102428.38;;;20.42;35.97
4273;BME280;63887;53.656;9.810;2023-05-29T06:23:18;102422.47;;;19.72;36.70
4273;BME280;63887;53.656;9.810;2023-05-29T06:25:46;102424.16;;;20.76;35.74
4273;BME280;63887;53.656;9.810;2023-05-29T06:28:13;102416.47;;;20.34;35.77
4273;BME280;63887;53.656;9.810;2023-05-29T06:30:39;102420.63;;;20.00;36.63
4273;BME280;63887;53.656;9.810;2023-05-29T06:33:05;102421.06;;;19.40;37.52
4273;BME280;63887;53.656;9.810;2023-05-29T06:35:31;102415.19;;;20.01;36.77
4273;BME280;63887;53.656;9.810;2023-05-29T06:37:58;102414.25;;;20.53;36.35
4273;BME280;63887;53.656;9.810;2023-05-29T06:40:24;102416.38;;;19.57;40.30
4273;BME280;63887;53.656;9.810;2023-05-29T06:42:52;102415.53;;;19.97;37.35
4273;BME280;63887;53.656;9.810;2023-05-29T06:45:18;102404.63;;;19.33;37.53
4273;BME280;63887;53.656;9.810;2023-05-29T06:47:44;102404.66;;;19.06;39.29
4273;BME280;63887;53.656;9.810;2023-05-29T06:50:10;102419.00;;;19.30;39.98
4273;BME280;63887;53.656;9.810;2023-05-29T06:52:37;102413.28;;;20.16;37.52
4273;BME280;63887;53.656;9.810;2023-05-29T06:55:03;102414.88;;;20.18;36.60
4273;BME280;63887;53.656;9.810;2023-05-29T06:57:29;102430.59;;;20.61;36.08
4273;BME280;63887;53.656;9.810;2023-05-29T06:59:57;102422.09;;;19.91;37.43
4273;BME280;63887;53.656;9.810;2023-05-29T07:02:23;102421.72;;;19.02;41.09
4273;BME280;63887;53.656;9.810;2023-05-29T07:04:50;102423.72;;;20.19;37.81
4273;BME280;63887;53.656;9.810;2023-05-29T07:07:16;102426.19;;;20.22;37.83
4273;BME280;63887;53.656;9.810;2023-05-29T07:09:42;102432.41;;;18.73;41.54
4273;BME280;63887;53.656;9.810;2023-05-29T07:12:09;102438.19;;;19.89;38.96
4273;BME280;63887;53.656;9.810;2023-05-29T07:14:35;102438.59;;;20.48;37.39
4273;BME280;63887;53.656;9.810;2023-05-29T07:17:03;102441.19;;;19.98;39.87
4273;BME280;63887;53.656;9.810;2023-05-29T07:19:29;102438.34;;;20.13;39.61
4273;BME280;63887;53.656;9.810;2023-05-29T07:21:57;102440.72;;;20.56;36.20
4273;BME280;63887;53.656;9.810;2023-05-29T07:24:23;102441.00;;;19.74;39.89
4273;BME280;63887;53.656;9.810;2023-05-29T07:26:49;102437.72;;;18.45;41.10
4273;BME280;63887;53.656;9.810;2023-05-29T07:29:16;102446.75;;;20.20;39.31
4273;BME280;63887;53.656;9.810;2023-05-29T07:31:43;102445.88;;;21.45;36.15
4273;BME280;63887;53.656;9.810;2023-05-29T07:34:10;102438.19;;;20.54;36.03
4273;BME280;63887;53.656;9.810;2023-05-29T07:36:36;102449.28;;;18.87;40.36
4273;BME280;63887;53.656;9.810;2023-05-29T07:39:21;102450.09;;;20.74;38.71
4273;BME280;63887;53.656;9.810;2023-05-29T07:41:47;102444.91;;;19.95;38.86
4273;BME280;63887;53.656;9.810;2023-05-29T07:44:14;102447.00;;;19.50;39.61
4273;BME280;63887;53.656;9.810;2023-05-29T07:46:40;102446.28;;;19.88;40.17
4273;BME280;63887;53.656;9.810;2023-05-29T07:49:06;102442.94;;;19.30;40.67
4273;BME280;63887;53.656;9.810;2023-05-29T07:51:34;102441.75;;;19.22;40.67
4273;BME280;63887;53.656;9.810;2023-05-29T07:54:00;102441.88;;;18.49;41.73
4273;BME280;63887;53.656;9.810;2023-05-29T07:56:27;102446.50;;;18.31;41.11
4273;BME280;63887;53.656;9.810;2023-05-29T07:58:53;102451.47;;;17.62;42.93
4273;BME280;63887;53.656;9.810;2023-05-29T08:01:20;102448.31;;;17.55;43.53
4273;BME280;63887;53.656;9.810;2023-05-29T08:03:46;102444.13;;;17.35;43.61
4273;BME280;63887;53.656;9.810;2023-05-29T08:06:12;102451.31;;;16.86;45.18
4273;BME280;63887;53.656;9.810;2023-05-29T08:08:40;102448.91;;;16.64;45.96
4273;BME280;63887;53.656;9.810;2023-05-29T08:11:06;102456.19;;;16.43;47.15
4273;BME280;63887;53.656;9.810;2023-05-29T08:13:32;102445.91;;;16.72;45.58
4273;BME280;63887;53.656;9.810;2023-05-29T08:15:59;102455.06;;;16.82;45.13
4273;BME280;63887;53.656;9.810;2023-05-29T08:18:25;102455.63;;;16.71;47.08
4273;BME280;63887;53.656;9.810;2023-05-29T08:20:52;102446.13;;;17.00;47.29
4273;BME280;63887;53.656;9.810;2023-05-29T08:23:18;102443.59;;;16.64;46.21
4273;BME280;63887;53.656;9.810;2023-05-29T08:25:47;102441.28;;;16.75;45.73
4273;BME280;63887;53.656;9.810;2023-05-29T08:28:14;102447.16;;;17.29;44.26
4273;BME280;63887;53.656;9.810;2023-05-29T08:30:40;102447.44;;;16.91;46.22
4273;BME280;63887;53.656;9.810;2023-05-29T08:33:06;102436.41;;;16.67;45.53
4273;BME280;63887;53.656;9.810;2023-05-29T08:35:33;102441.03;;;16.80;46.45
4273;BME280;63887;53.656;9.810;2023-05-29T08:37:59;102444.72;;;17.09;48.29
4273;BME280;63887;53.656;9.810;2023-05-29T08:40:25;102437.91;;;17.05;49.73
4273;BME280;63887;53.656;9.810;2023-05-29T08:42:56;102428.97;;;16.74;45.01
4273;BME280;63887;53.656;9.810;2023-05-29T08:45:23;102438.56;;;16.92;49.21
4273;BME280;63887;53.656;9.810;2023-05-29T08:47:51;102434.78;;;16.81;46.54
4273;BME280;63887;53.656;9.810;2023-05-29T08:50:17;102426.50;;;16.54;47.26
4273;BME280;63887;53.656;9.810;2023-05-29T08:52:45;102434.19;;;16.58;46.85
4273;BME280;63887;53.656;9.810;2023-05-29T08:55:11;102435.38;;;16.70;48.72
4273;BME280;63887;53.656;9.810;2023-05-29T08:57:38;102435.19;;;16.40;47.10
4273;BME280;63887;53.656;9.810;2023-05-29T09:00:07;102442.03;;;16.44;47.04
4273;BME280;63887;53.656;9.810;2023-05-29T09:02:37;102453.34;;;16.30;49.33
4273;BME280;63887;53.656;9.810;2023-05-29T09:05:03;102445.59;;;16.43;49.91
4273;BME280;63887;53.656;9.810;2023-05-29T09:07:31;102442.63;;;16.49;47.30
4273;BME280;63887;53.656;9.810;2023-05-29T09:09:57;102447.09;;;16.64;46.37
4273;BME280;63887;53.656;9.810;2023-05-29T09:12:25;102440.28;;;16.93;48.51
4273;BME280;63887;53.656;9.810;2023-05-29T09:14:52;102440.88;;;16.83;51.18
4273;BME280;63887;53.656;9.810;2023-05-29T09:17:19;102439.88;;;17.01;48.25
4273;BME280;63887;53.656;9.810;2023-05-29T09:19:47;102448.47;;;16.89;49.37
4273;BME280;63887;53.656;9.810;2023-05-29T09:22:14;102444.47;;;16.64;47.31
4273;BME280;63887;53.656;9.810;2023-05-29T09:24:41;102447.66;;;16.38;47.04
4273;BME280;63887;53.656;9.810;2023-05-29T09:27:08;102448.72;;;16.34;47.74
4273;BME280;63887;53.656;9.810;2023-05-29T09:29:37;102447.78;;;16.52;49.86
4273;BME280;63887;53.656;9.810;2023-05-29T09:32:06;102439.09;;;16.16;49.43
4273;BME280;63887;53.656;9.810;2023-05-29T09:34:35;102435.56;;;16.65;48.14
4273;BME280;63887;53.656;9.810;2023-05-29T09:37:01;102437.59;;;16.78;47.14
4273;BME280;63887;53.656;9.810;2023-05-29T09:39:33;102445.19;;;16.51;47.44
4273;BME280;63887;53.656;9.810;2023-05-29T09:41:59;102440.00;;;16.65;47.26
4273;BME280;63887;53.656;9.810;2023-05-29T09:44:26;102447.84;;;16.68;47.63
4273;BME280;63887;53.656;9.810;2023-05-29T09:46:56;102449.00;;;16.95;47.91
4273;BME280;63887;53.656;9.810;2023-05-29T09:49:23;102452.34;;;16.99;46.49
4273;BME280;63887;53.656;9.810;2023-05-29T09:51:53;102453.03;;;17.03;46.96
4273;BME280;63887;53.656;9.810;2023-05-29T09:54:19;102451.59;;;17.13;48.98
4273;BME280;63887;53.656;9.810;2023-05-29T09:56:46;102441.72;;;16.83;47.60
4273;BME280;63887;53.656;9.810;2023-05-29T09:59:13;102437.50;;;16.79;45.58
4273;BME280;63887;53.656;9.810;2023-05-29T10:01:40;102438.06;;;16.86;48.63
4273;BME280;63887;53.656;9.810;2023-05-29T10:04:07;102440.53;;;17.05;47.13
4273;BME280;63887;53.656;9.810;2023-05-29T10:06:34;102432.94;;;16.83;46.56
4273;BME280;63887;53.656;9.810;2023-05-29T10:09:02;102428.31;;;16.86;50.49
4273;BME280;63887;53.656;9.810;2023-05-29T10:11:30;102432.84;;;16.84;45.76
4273;BME280;63887;53.656;9.810;2023-05-29T10:13:58;102432.50;;;16.57;46.12
4273;BME280;63887;53.656;9.810;2023-05-29T10:16:25;102430.75;;;16.74;45.90
4273;BME280;63887;53.656;9.810;2023-05-29T10:18:53;102436.50;;;16.64;44.29
4273;BME280;63887;53.656;9.810;2023-05-29T10:21:21;102427.09;;;16.76;43.74
4273;BME280;63887;53.656;9.810;2023-05-29T10:23:48;102426.34;;;16.90;49.09
4273;BME280;63887;53.656;9.810;2023-05-29T10:26:18;102415.06;;;17.02;43.74
4273;BME280;63887;53.656;9.810;2023-05-29T10:28:46;102411.78;;;16.81;48.66
4273;BME280;63887;53.656;9.810;2023-05-29T10:31:16;102431.22;;;16.82;45.42
4273;BME280;63887;53.656;9.810;2023-05-29T10:33:48;102426.16;;;16.77;45.73
4273;BME280;63887;53.656;9.810;2023-05-29T10:36:19;102415.31;;;16.64;46.62
4273;BME280;63887;53.656;9.810;2023-05-29T10:38:47;102417.97;;;16.97;45.59
4273;BME280;63887;53.656;9.810;2023-05-29T10:41:29;102414.47;;;16.97;43.74
4273;BME280;63887;53.656;9.810;2023-05-29T10:43:57;102412.66;;;16.82;42.36
4273;BME280;63887;53.656;9.810;2023-05-29T10:49:04;102407.78;;;16.57;44.20
4273;BME280;63887;53.656;9.810;2023-05-29T10:51:41;102413.16;;;16.73;43.98
4273;BME280;63887;53.656;9.810;2023-05-29T10:54:07;102417.13;;;16.97;43.09
4273;BME280;63887;53.656;9.810;2023-05-29T10:56:35;102414.97;;;16.88;44.72
4273;BME280;63887;53.656;9.810;2023-05-29T10:59:01;102408.63;;;16.90;46.47
4273;BME280;63887;53.656;9.810;2023-05-29T11:01:28;102401.88;;;17.32;43.11
4273;BME280;63887;53.656;9.810;2023-05-29T11:06:40;102391.97;;;17.04;45.72
4273;BME280;63887;53.656;9.810;2023-05-29T11:09:06;102393.09;;;17.16;48.53
4273;BME280;63887;53.656;9.810;2023-05-29T11:14:38;102403.59;;;17.33;44.39
4273;BME280;63887;53.656;9.810;2023-05-29T11:17:14;102396.06;;;17.25;46.58
4273;BME280;63887;53.656;9.810;2023-05-29T11:19:55;102390.63;;;17.13;42.87
4273;BME280;63887;53.656;9.810;2023-05-29T11:22:23;102389.56;;;17.31;41.29
4273;BME280;63887;53.656;9.810;2023-05-29T11:24:52;102389.94;;;17.55;41.51
4273;BME280;63887;53.656;9.810;2023-05-29T11:27:19;102378.34;;;17.42;42.06
4273;BME280;63887;53.656;9.810;2023-05-29T11:29:48;102393.47;;;17.40;41.50
4273;BME280;63887;53.656;9.810;2023-05-29T11:32:18;102392.91;;;17.65;40.35
4273;BME280;63887;53.656;9.810;2023-05-29T11:34:46;102386.13;;;17.45;41.85
4273;BME280;63887;53.656;9.810;2023-05-29T11:37:13;102390.88;;;17.54;40.94
4273;BME280;63887;53.656;9.810;2023-05-29T11:39:40;102377.75;;;17.37;41.00
4273;BME280;63887;53.656;9.810;2023-05-29T11:42:07;102383.22;;;17.34;40.12
4273;BME280;63887;53.656;9.810;2023-05-29T11:44:33;102376.00;;;17.51;40.90
4273;BME280;63887;53.656;9.810;2023-05-29T11:47:01;102382.59;;;17.60;40.96
4273;BME280;63887;53.656;9.810;2023-05-29T11:49:28;102374.78;;;17.73;39.65
4273;BME280;63887;53.656;9.810;2023-05-29T11:52:04;102376.84;;;17.52;42.25
4273;BME280;63887;53.656;9.810;2023-05-29T11:54:32;102367.81;;;17.40;40.98
4273;BME280;63887;53.656;9.810;2023-05-29T11:56:58;102373.16;;;17.70;43.94
4273;BME280;63887;53.656;9.810;2023-05-29T11:59:27;102373.56;;;17.78;44.07
4273;BME280;63887;53.656;9.810;2023-05-29T12:01:54;102369.53;;;18.01;40.21
4273;BME280;63887;53.656;9.810;2023-05-29T12:04:21;102371.31;;;17.86;37.88
4273;BME280;63887;53.656;9.810;2023-05-29T12:06:48;102362.69;;;17.97;39.93
4273;BME280;63887;53.656;9.810;2023-05-29T12:09:23;102357.38;;;17.97;37.58
4273;BME280;63887;53.656;9.810;2023-05-29T12:11:50;102362.06;;;18.08;38.26
4273;BME280;63887;53.656;9.810;2023-05-29T12:14:16;102361.19;;;18.07;39.68
4273;BME280;63887;53.656;9.810;2023-05-29T12:16:43;102365.16;;;18.14;40.08
4273;BME280;63887;53.656;9.810;2023-05-29T12:19:09;102364.44;;;18.27;38.70
4273;BME280;63887;53.656;9.810;2023-05-29T12:21:37;102358.84;;;18.03;38.81
4273;BME280;63887;53.656;9.810;2023-05-29T12:24:07;102360.00;;;17.83;41.41
4273;BME280;63887;53.656;9.810;2023-05-29T12:26:33;102367.38;;;18.22;41.92
4273;BME280;63887;53.656;9.810;2023-05-29T12:29:02;102370.00;;;18.08;41.40
4273;BME280;63887;53.656;9.810;2023-05-29T12:31:28;102365.97;;;18.16;39.33
4273;BME280;63887;53.656;9.810;2023-05-29T12:33:58;102368.97;;;18.10;39.42
4273;BME280;63887;53.656;9.810;2023-05-29T12:36:25;102372.22;;;18.15;40.12
4273;BME280;63887;53.656;9.810;2023-05-29T12:38:53;102359.28;;;17.95;42.35
4273;BME280;63887;53.656;9.810;2023-05-29T12:41:23;102360.44;;;18.05;40.57
4273;BME280;63887;53.656;9.810;2023-05-29T12:43:52;102359.22;;;18.39;39.63
4273;BME280;63887;53.656;9.810;2023-05-29T12:46:18;102361.00;;;18.39;39.55
4273;BME280;63887;53.656;9.810;2023-05-29T12:48:44;102344.19;;;17.96;40.83
4273;BME280;63887;53.656;9.810;2023-05-29T12:51:11;102350.38;;;18.25;40.49
4273;BME280;63887;53.656;9.810;2023-05-29T12:53:37;102344.03;;;18.27;37.47
4273;BME280;63887;53.656;9.810;2023-05-29T12:56:05;102332.66;;;18.25;38.41
4273;BME280;63887;53.656;9.810;2023-05-29T12:58:31;102335.97;;;18.43;38.77
4273;BME280;63887;53.656;9.810;2023-05-29T13:00:57;102343.47;;;18.51;37.84
4273;BME280;63887;53.656;9.810;2023-05-29T13:03:24;102338.63;;;18.29;39.01
4273;BME280;63887;53.656;9.810;2023-05-29T13:05:50;102337.00;;;18.40;38.56
4273;BME280;63887;53.656;9.810;2023-05-29T13:08:18;102330.47;;;18.46;38.37
4273;BME280;63887;53.656;9.810;2023-05-29T13:10:44;102335.78;;;18.46;38.62
4273;BME280;63887;53.656;9.810;2023-05-29T13:13:12;102328.28;;;18.38;39.72
4273;BME280;63887;53.656;9.810;2023-05-29T13:15:38;102335.28;;;18.54;39.21
4273;BME280;63887;53.656;9.810;2023-05-29T13:18:05;102326.06;;;18.59;40.40
4273;BME280;63887;53.656;9.810;2023-05-29T13:20:31;102325.50;;;18.54;40.34